• Join FlightAware (Why Join?)
  • Login
  • US Flag 
09:52PM EDT


 

Airport Tracker/Info


-or-


 

Live Flight TrackerFlight Track Log ✈ AAL501 ✈ 23-Apr-2013 ✈ KDFW - KFAT

Flight Track Log - Related Links

Times and Time Zones

All times are in EDT time to prevent confusion due to time zone crossing. See the AAL501 flight status page for this flight to view local times or setup timezone preferences in your user account.

Time Position Orientation Groundspeed Altitude Reporting Facility
EDT Latitude Longitude Course Direction KTS MPH feet Rate Location/Type
09:44PM 32.9167 -97.0500 293° West 170 196 1,900  Level Dallas / Fort Worth TRACON
09:45PM 32.9667 -97.0667 344° North 214 246 3,800 1,620 Climbing Dallas / Fort Worth TRACON
09:46PM 33.0167 -97.1167 320° Northwest 259 298 5,200 1,920 Climbing Dallas / Fort Worth TRACON
09:47PM 32.6833 -97.2009 270° West  Level FlightAware Approximate
09:47PM 33.0000 -97.2000 257° West 241 277 7,700  Level Dallas / Fort Worth TRACON
09:48PM 32.7071 -97.3196 293° West  Level FlightAware Approximate
09:49PM 32.7487 -97.4337 293° West  Level FlightAware Approximate
09:49PM 32.9794 -97.3144 258° West 243 280 10,000  Level Fort Worth Center
09:50PM 32.9564 -97.3936 251° West 272 313 11,800 1,920 Climbing Fort Worth Center
09:51PM 32.9272 -97.5025 252° West 306 352 13,900 2,160 Climbing Fort Worth Center
09:52PM 32.9000 -97.6089 253° West 324 373 16,200 2,100 Climbing Fort Worth Center
09:53PM 32.8728 -97.7028 251° West 336 387 18,100 1,920 Climbing Fort Worth Center
09:54PM 32.8722 -97.8289 270° West 342 394 20,100 1,560 Climbing Fort Worth Center
09:55PM 32.8969 -97.9306 286° West 351 404 21,300 1,320 Climbing Fort Worth Center
09:56PM 32.9278 -98.0594 286° West 365 420 22,800 1,260 Climbing Fort Worth Center
09:57PM 32.9522 -98.1686 285° West 377 434 23,900 1,200 Climbing Fort Worth Center
09:58PM 32.9786 -98.2900 285° West 377 434 25,300 1,200 Climbing Fort Worth Center
09:59PM 33.0067 -98.4142 285° West 377 434 26,400 1,200 Climbing Fort Worth Center
10:00PM 33.0369 -98.5336 287° West 377 434 27,700 1,080 Climbing Fort Worth Center
10:01PM 33.0589 -98.6603 282° West 383 441 28,600 960 Climbing Fort Worth Center
10:02PM 33.0867 -98.7894 284° West 394 453 29,700 960 Climbing Fort Worth Center
10:03PM 33.1167 -98.9164 286° West 401 461 30,600 960 Climbing Fort Worth Center
10:04PM 33.1442 -99.0436 285° West 401 461 31,700 660 Climbing Fort Worth Center
10:05PM 33.1697 -99.1681 284° West 395 455 32,000 120 Climbing Fort Worth Center
10:06PM 33.1972 -99.2903 285° West 395 455 32,000  Level Fort Worth Center
10:07PM 33.2222 -99.4150 284° West 395 455 32,000  Level Fort Worth Center
10:08PM 33.2494 -99.5372 285° West 395 455 32,000  Level Fort Worth Center
10:09PM 33.2744 -99.6594 284° West 390 449 32,000  Level Fort Worth Center
10:10PM 33.3014 -99.7844 284° West 390 449 32,000  Level Fort Worth Center
10:11PM 33.3261 -99.9069 284° West 390 449 32,000  Level Fort Worth Center
10:12PM 33.3508 -100.0319 283° West 385 443 32,000  Level Fort Worth Center
10:13PM 33.3772 -100.1572 284° West 385 443 32,000  Level Fort Worth Center
10:14PM 33.4036 -100.2825 284° West 390 449 32,000  Level Fort Worth Center
10:15PM 33.4258 -100.4075 282° West 390 449 32,000  Level Fort Worth Center
10:16PM 33.4522 -100.5281 285° West 390 449 32,000  Level Fort Worth Center
10:17PM 33.4761 -100.6533 283° West 390 449 32,000  Level Fort Worth Center
10:18PM 33.5000 -100.7739 283° West 385 443 32,000  Level Fort Worth Center
10:19PM 33.5297 -100.9119 285° West 385 443 32,000  Level Fort Worth Center
10:20PM 33.5533 -101.0350 283° West 385 443 32,000  Level Fort Worth Center
10:21PM 33.5767 -101.1606 283° West 385 443 32,000  Level Fort Worth Center
10:22PM 33.6003 -101.2814 283° West 379 436 32,000  Level Fort Worth Center
10:23PM 33.6256 -101.4047 284° West 379 436 32,000  Level Fort Worth Center
10:24PM 33.6486 -101.5306 282° West 379 436 32,000  Level Fort Worth Center
10:25PM 33.6697 -101.6486 282° West 379 436 32,000  Level Fort Worth Center
10:26PM 33.6944 -101.7747 283° West 379 436 32,000  Level Fort Worth Center
10:27PM 33.7192 -101.9008 283° West 379 436 32,000  Level Fort Worth Center
10:28PM 33.7381 -102.0142 281° West 384 442 32,000  Level Fort Worth Center
10:29PM 33.7644 -102.1481 283° West 375 432 32,000  Level Fort Worth Center
10:30PM 33.7833 -102.2564 282° West 375 432 32,000  Level Fort Worth Center
10:31PM 33.8092 -102.3953 283° West 380 437 32,000  Level Fort Worth Center
10:32PM 33.8297 -102.5064 283° West 380 437 32,000  Level Fort Worth Center
10:33PM 33.8589 -102.6597 283° West 379 436 32,000  Level Albuquerque Center
10:34PM 33.8825 -102.7850 283° West 383 441 32,000  Level Albuquerque Center
10:35PM 33.9036 -102.9061 282° West 376 433 32,000  Level Albuquerque Center
10:36PM 33.9253 -103.0289 282° West 376 433 32,000  Level Albuquerque Center
10:37PM 33.9519 -103.1750 282° West 373 429 32,000  Level Albuquerque Center
10:38PM 33.9742 -103.2983 282° West 376 433 32,000  Level Albuquerque Center
10:39PM 33.9953 -103.4247 281° West 383 441 32,000  Level Albuquerque Center
10:40PM 34.0167 -103.5497 282° West 383 441 32,000  Level Albuquerque Center
10:41PM 34.0383 -103.6758 282° West 381 438 32,000  Level Albuquerque Center
10:42PM 34.0581 -103.8000 281° West 376 433 32,000  Level Albuquerque Center
10:43PM 34.0797 -103.9200 282° West 367 422 32,000  Level Albuquerque Center
10:44PM 34.0997 -104.0383 282° West 361 415 32,000  Level Albuquerque Center
10:45PM 34.1208 -104.1561 282° West 357 411 32,000  Level Albuquerque Center
10:46PM 34.1403 -104.2769 281° West 360 414 32,000  Level Albuquerque Center
10:47PM 34.1603 -104.4000 281° West 368 423 32,000  Level Albuquerque Center
10:48PM 34.1794 -104.5175 281° West 359 413 32,000  Level Albuquerque Center
10:49PM 34.1997 -104.6350 282° West 354 407 32,000  Level Albuquerque Center
10:50PM 34.2194 -104.7564 281° West 359 413 32,000  Level Albuquerque Center
10:51PM 34.2389 -104.8731 281° West 355 409 32,000  Level Albuquerque Center
10:52PM 34.2603 -105.0125 281° West 358 412 32,000  Level Albuquerque Center
10:53PM 34.2806 -105.1303 282° West 357 411 32,000  Level Albuquerque Center
10:54PM 34.2994 -105.2456 281° West 351 404 32,000  Level Albuquerque Center
10:55PM 34.3181 -105.3633 281° West 351 404 32,000  Level Albuquerque Center
10:56PM 34.3367 -105.4822 281° West 354 407 32,000  Level Albuquerque Center
10:57PM 34.3544 -105.5983 281° West 351 404 32,000  Level Albuquerque Center
10:58PM 34.3692 -105.7183 278° West 354 407 32,000  Level Albuquerque Center
10:59PM 34.3717 -105.8389 271° West 356 410 32,000  Level Albuquerque Center
11:00PM 34.3753 -105.9600 272° West 357 411 32,000  Level Albuquerque Center
11:01PM 34.3792 -106.0828 272° West 361 415 32,000  Level Albuquerque Center
11:02PM 34.3811 -106.2069 271° West 365 420 32,000  Level Albuquerque Center
11:03PM 34.3831 -106.3281 271° West 366 421 32,000  Level Albuquerque Center
11:04PM 34.3861 -106.4492 272° West 362 417 32,000  Level Albuquerque Center
11:06PM 34.3894 -106.5681 272° West 356 410 32,000  Level Albuquerque Center
11:07PM 34.3925 -106.6889 272° West 356 410 32,000  Level Albuquerque Center
11:08PM 34.3953 -106.8100 272° West 359 413 32,000  Level Albuquerque Center
11:09PM 34.3978 -106.9364 271° West 363 418 32,000  Level Albuquerque Center
11:10PM 34.3997 -107.0556 271° West 364 419 32,000  Level Albuquerque Center
11:11PM 34.4025 -107.1772 272° West 361 415 32,000  Level Albuquerque Center
11:12PM 34.4042 -107.3014 271° West 364 419 32,000  Level Albuquerque Center
11:13PM 34.4067 -107.4525 271° West 371 427 32,000  Level Albuquerque Center
11:14PM 34.4092 -107.5781 271° West 373 429 32,000  Level Albuquerque Center
11:15PM 34.4103 -107.7031 271° West 370 426 32,000  Level Albuquerque Center
11:16PM 34.4131 -107.8283 272° West 371 427 32,000  Level Albuquerque Center
11:17PM 34.4142 -107.9528 271° West 371 427 32,000  Level Albuquerque Center
11:18PM 34.4158 -108.0764 271° West 367 422 32,000  Level Albuquerque Center
11:19PM 34.4175 -108.2022 271° West 371 427 32,000  Level Albuquerque Center
11:20PM 34.4186 -108.3267 271° West 371 427 32,000  Level Albuquerque Center
11:21PM 34.4206 -108.4525 271° West 372 428 32,000  Level Albuquerque Center
11:22PM 34.4214 -108.5856 270° West 371 427 32,000  Level Albuquerque Center
11:23PM 34.4228 -108.7256 271° West 372 428 32,000  Level Albuquerque Center
11:24PM 34.4228 -108.8456 270° West 372 428 32,000  Level Albuquerque Center
11:25PM 34.4233 -108.9644 270° West 371 427 32,000  Level Albuquerque Center
11:26PM 34.4236 -109.1039 270° West 370 426 32,000  Level Albuquerque Center
11:27PM 34.4214 -109.2219 269° West 369 425 32,000  Level Albuquerque Center
11:28PM 34.4153 -109.3619 267° West 371 427 32,000  Level Albuquerque Center
11:29PM 34.4117 -109.4853 268° West 376 433 32,000  Level Albuquerque Center
11:30PM 34.4064 -109.6047 267° West 374 430 32,000  Level Albuquerque Center
11:31PM 34.4011 -109.7467 267° West 376 433 32,000  Level Albuquerque Center
11:32PM 34.3961 -109.8700 267° West 380 437 32,000  Level Albuquerque Center
11:33PM 34.3908 -109.9919 267° West 380 437 32,000  Level Albuquerque Center
11:34PM 34.3853 -110.1344 267° West 380 437 32,000  Level Albuquerque Center
11:35PM 34.3803 -110.2567 267° West 380 437 32,000  Level Albuquerque Center
11:36PM 34.3725 -110.3983 266° West 379 436 32,000  Level Albuquerque Center
11:37PM 34.3708 -110.5158 269° West 391 450 32,000  Level Albuquerque Center
11:38PM 34.3642 -110.6428 266° West 385 443 32,000  Level Albuquerque Center
11:39PM 34.3553 -110.7692 265° West 380 437 32,000  Level Albuquerque Center
11:40PM 34.3458 -110.9247 266° West 386 444 32,000  Level Albuquerque Center
11:41PM 34.3400 -111.0533 267° West 386 444 32,000  Level Albuquerque Center
11:42PM 34.3328 -111.1847 266° West 390 449 32,000  Level Albuquerque Center
11:43PM 34.3292 -111.3142 268° West 389 448 32,000  Level Albuquerque Center
11:44PM 34.3642 -111.4372 289° West 388 447 32,000 600 Level Albuquerque Center
11:45PM 34.3900 -111.5594 284° West 384 442 33,300 960 Climbing Albuquerque Center
11:46PM 34.3989 -111.6839 275° West 377 434 34,000 300 Climbing Albuquerque Center
11:47PM 34.4117 -111.8111 277° West 381 438 34,000  Level Albuquerque Center
11:48PM 34.4272 -111.9642 277° West 385 443 34,000  Level Albuquerque Center
11:49PM 34.4403 -112.0917 277° West 384 442 34,000  Level Albuquerque Center
11:50PM 34.4533 -112.2189 277° West 384 442 34,000  Level Albuquerque Center
11:51PM 34.4658 -112.3456 277° West 382 440 34,000  Level Albuquerque Center
11:52PM 34.4794 -112.4678 278° West 382 440 34,000  Level Albuquerque Center
11:53PM 34.4922 -112.5947 277° West 381 438 34,000  Level Albuquerque Center
11:54PM 34.5039 -112.7244 276° West 385 443 34,000  Level Albuquerque Center
11:56PM 34.5156 -112.8547 276° West 389 448 34,000  Level Albuquerque Center
11:57PM 34.5194 -113.0142 272° West 393 452 34,000  Level Albuquerque Center
11:58PM 34.5261 -113.1467 274° West 395 455 34,000  Level Albuquerque Center
11:59PM 34.5308 -113.2808 272° West 398 458 34,000  Level Albuquerque Center
12:00AM 34.5364 -113.4142 273° West 397 457 34,000  Level Albuquerque Center
12:01AM 34.5408 -113.5478 272° West 398 458 34,000  Level Albuquerque Center
12:02AM 34.5475 -113.6950 273° West 397 457 34,000  Level Albuquerque Center
12:03AM 34.5519 -113.8300 272° West 399 459 34,000  Level Albuquerque Center
12:04AM 34.5558 -113.9650 272° West 400 460 34,000  Level Albuquerque Center
12:05AM 34.5611 -114.1006 273° West 401 461 34,000 -120 Level Albuquerque Center
12:05AM 34.5636 -114.1497 274° West 401 461 33,900  Descending Los Angeles Center
12:06AM 34.5683 -114.2856 272° West 403 464 34,000  Climbing Los Angeles Center
12:07AM 34.5722 -114.4206 272° West 404 465 34,000  Level Los Angeles Center
12:08AM 34.5772 -114.5575 273° West 406 467 34,000  Level Los Angeles Center
12:09AM 34.5808 -114.7217 272° West 407 468 34,000  Level Los Angeles Center
12:10AM 34.5850 -114.8581 272° West 408 470 34,000  Level Los Angeles Center
12:11AM 34.5883 -114.9939 272° West 405 466 34,000  Level Los Angeles Center
12:12AM 34.5917 -115.1319 272° West 408 470 34,000 -60 Level Los Angeles Center
12:13AM 34.5953 -115.2706 272° West 410 472 33,900  Descending Los Angeles Center
12:14AM 34.5986 -115.4072 272° West 409 471 34,000  Climbing Los Angeles Center
12:15AM 34.6011 -115.5472 271° West 412 474 34,000  Level Los Angeles Center
12:16AM 34.6056 -115.6947 272° West 415 478 34,000  Level Los Angeles Center
12:17AM 34.6078 -115.8342 271° West 414 476 34,000  Level Los Angeles Center
12:18AM 34.6108 -115.9747 272° West 416 479 34,000  Level Los Angeles Center
12:19AM 34.6128 -116.1147 271° West 416 479 34,000  Level Los Angeles Center
12:20AM 34.6158 -116.2828 271° West 416 479 34,000  Level Los Angeles Center
12:21AM 34.6178 -116.4233 271° West 417 480 34,000  Level Los Angeles Center
12:22AM 34.6200 -116.5622 271° West 413 475 34,000  Level Los Angeles Center
12:24AM 34.6214 -116.7014 271° West 411 473 34,000  Level Los Angeles Center
12:25AM 34.6233 -116.8403 271° West 412 474 34,000  Level Los Angeles Center
12:26AM 34.6247 -116.9781 271° West 408 470 34,000  Level Los Angeles Center
12:27AM 34.6258 -117.1158 271° West 407 468 34,000  Level Los Angeles Center
12:28AM 34.6267 -117.2517 270° West 404 465 34,000  Level Los Angeles Center
12:29AM 34.6269 -117.3908 270° West 409 471 34,000  Level Los Angeles Center
12:30AM 34.6283 -117.5294 271° West 409 471 34,000  Level Los Angeles Center
12:31AM 34.6283 -117.6683 270° West 410 472 34,000  Level Los Angeles Center
12:32AM 34.6289 -117.8067 270° West 410 472 34,000  Level Los Angeles Center
12:33AM 34.6306 -117.9472 271° West 414 476 34,000  Level Los Angeles Center
12:34AM 34.6456 -118.0825 278° West 415 478 34,100  Climbing Los Angeles Center
12:35AM 34.7342 -118.2167 309° West 428 493 34,000 -60 Descending Los Angeles Center
12:36AM 34.8108 -118.3272 310° West 428 493 34,000 -420 Level Los Angeles Center
12:37AM 34.8872 -118.4378 310° West 427 491 33,200 -1,500 Descending Los Angeles Center
12:38AM 34.9553 -118.5369 310° West 430 495 31,000 -2,100 Descending Los Angeles Center
12:39AM 35.0753 -118.6447 324° Northwest 467 537 29,000 -1,620 Descending Los Angeles Center
12:40AM 35.1917 -118.6997 339° North 452 520 27,800 -1,140 Descending Los Angeles Center
12:41AM 35.3119 -118.7497 341° North 456 525 26,800 -1,020 Descending Los Angeles Center
12:42AM 35.4253 -118.8011 340° North 446 513 25,800 -1,200 Descending Los Angeles Center
12:43AM 35.5342 -118.8517 339° North 431 496 24,400 -1,500 Descending Los Angeles Center
12:44AM 35.6514 -118.9028 340° North 442 509 22,800 -1,320 Descending Los Angeles Center
12:45AM 35.7653 -118.9556 339° North 442 509 21,700 -1,500 Descending Los Angeles Center
12:46AM 35.8764 -119.0053 340° North 433 498 19,800 -2,040 Descending Los Angeles Center
12:47AM 36.0033 -119.0653 339° North 431 496 17,600 -1,800 Descending Oakland Center
12:48AM 36.1097 -119.1175 338° Northwest 423 487 16,200 -1,200 Descending Oakland Center
12:49AM 36.2150 -119.1675 339° North 417 480 15,200 -1,440 Descending Oakland Center
12:50AM 36.3178 -119.2147 340° North 399 459 13,400 -1,680 Descending Oakland Center
12:51AM 36.4069 -119.2600 338° Northwest 353 406 11,900 -1,620 Descending Oakland Center
12:52AM 36.4828 -119.2958 339° North 299 344 10,200 -1,920 Descending Oakland Center
12:53AM 36.5531 -119.3339 336° Northwest 281 323 8,000 -2,280 Descending Oakland Center
12:54AM 36.5986 -119.4097 307° West 274 315 5,700 -1,740 Descending Oakland Center
12:55AM 36.6431 -119.4836 307° West 270 311 4,600 -1,140 Descending Oakland Center
12:56AM 36.6772 -119.5467 304° West 228 262 3,400 -1,140 Descending Oakland Center
12:57AM 36.7072 -119.5992 305° West 194 223 2,400 -900 Descending Oakland Center
12:58AM 36.7300 -119.6389 306° West 149 171 1,600 -780 Descending Oakland Center
12:59AM 36.7539 -119.6811 305° West 135 155 900 -720 Descending Oakland Center